Time;durP1;ratioP1;P1;durP2;ratioP2;P2;SDS_P1;SDS_P2;PMS_P1;PMS_P2;Temp;Humidity;BMP_temperature;BMP_pressure;BME280_temperature;BME280_humidity;BME280_pressure;Samples;Min_cycle;Max_cycle;Signal;HPM_P1;HPM_P2
2021/06/24 00:00:47;;;;;;;2.10;0.80;;;18.30;95.90;;;;;;5073309;28;20480;-67
2021/06/24 00:03:15;;;;;;;2.37;1.13;;;18.20;95.90;;;;;;5072983;28;20787;-68
2021/06/24 00:05:44;;;;;;;1.80;0.90;;;18.20;95.80;;;;;;5073532;28;20436;-67
2021/06/24 00:08:13;;;;;;;1.73;0.90;;;18.20;95.80;;;;;;5073054;28;20444;-67
2021/06/24 00:10:42;;;;;;;1.70;0.90;;;18.10;95.70;;;;;;5073157;28;20432;-67
2021/06/24 00:13:12;;;;;;;3.00;0.80;;;18.00;95.30;;;;;;5074421;28;20475;-67
2021/06/24 00:15:40;;;;;;;2.10;0.87;;;18.00;95.30;;;;;;5093839;28;20434;-69
2021/06/24 00:18:07;;;;;;;3.83;0.87;;;18.00;95.30;;;;;;5091188;28;20507;-69
2021/06/24 00:20:36;;;;;;;2.00;1.10;;;17.90;95.50;;;;;;5073364;28;20570;-67
2021/06/24 00:23:06;;;;;;;1.60;0.80;;;17.90;95.30;;;;;;5073464;28;20456;-68
2021/06/24 00:25:35;;;;;;;3.80;1.10;;;17.80;95.70;;;;;;5093614;28;20482;-67
2021/06/24 00:28:04;;;;;;;2.30;1.00;;;17.70;95.90;;;;;;5082685;28;20484;-67
2021/06/24 00:30:31;;;;;;;1.50;0.80;;;17.70;96.00;;;;;;5093304;28;20473;-67
2021/06/24 00:33:04;;;;;;;2.20;0.90;;;17.70;96.20;;;;;;5083114;28;20436;-67
2021/06/24 00:35:31;;;;;;;2.90;0.73;;;17.70;96.20;;;;;;5073497;28;20444;-68
2021/06/24 00:37:58;;;;;;;1.50;0.70;;;17.70;96.30;;;;;;5081308;28;20470;-68
2021/06/24 00:40:25;;;;;;;2.70;0.77;;;17.60;96.40;;;;;;5072579;28;20522;-67
2021/06/24 00:42:55;;;;;;;1.77;0.93;;;17.60;96.40;;;;;;5071878;28;20444;-68
2021/06/24 00:45:26;;;;;;;2.07;1.53;;;17.60;96.50;;;;;;5064422;28;20474;-68
2021/06/24 00:47:53;;;;;;;2.43;0.73;;;17.70;96.40;;;;;;5072145;28;20440;-68
2021/06/24 00:50:24;;;;;;;1.87;1.07;;;17.70;96.80;;;;;;5072553;28;20545;-67
2021/06/24 00:52:51;;;;;;;4.33;1.00;;;17.70;96.80;;;;;;5072099;28;20926;-68
2021/06/24 00:55:39;;;;;;;1.83;0.90;;;17.70;96.70;;;;;;5072067;28;20440;-68
2021/06/24 00:58:07;;;;;;;3.80;1.00;;;17.80;96.90;;;;;;5071827;28;20430;-68
2021/06/24 01:00:34;;;;;;;2.40;0.93;;;17.80;96.90;;;;;;5072327;28;20490;-68
2021/06/24 01:03:01;;;;;;;4.50;0.90;;;17.80;96.80;;;;;;5071581;28;20515;-68
2021/06/24 01:05:29;;;;;;;2.00;0.80;;;17.80;96.90;;;;;;5072484;28;20439;-69
2021/06/24 01:08:00;;;;;;;2.13;1.47;;;17.80;96.90;;;;;;5071740;28;20444;-68
2021/06/24 01:10:27;;;;;;;2.70;1.13;;;17.80;96.80;;;;;;5072359;28;20985;-68
2021/06/24 01:12:54;;;;;;;2.10;0.70;;;17.80;96.70;;;;;;5071703;28;20934;-68
2021/06/24 01:15:23;;;;;;;2.20;1.20;;;17.80;96.70;;;;;;5072162;28;20859;-68
2021/06/24 01:17:50;;;;;;;1.60;0.90;;;17.80;96.80;;;;;;5071453;28;20456;-68
2021/06/24 01:20:18;;;;;;;2.20;1.07;;;17.80;96.80;;;;;;5071899;28;20954;-68
2021/06/24 01:22:45;;;;;;;3.30;1.00;;;17.80;96.90;;;;;;5072387;28;20443;-68
2021/06/24 01:25:14;;;;;;;2.60;0.93;;;17.80;97.00;;;;;;5072214;28;20436;-68
2021/06/24 01:27:41;;;;;;;1.60;0.70;;;17.90;97.00;;;;;;5071169;28;20440;-70
2021/06/24 01:30:10;;;;;;;1.57;0.70;;;17.90;96.70;;;;;;5071760;28;20475;-68
2021/06/24 01:32:37;;;;;;;2.70;1.00;;;17.90;97.00;;;;;;5071804;28;20753;-68
2021/06/24 01:35:05;;;;;;;2.20;0.80;;;17.90;97.00;;;;;;5071951;28;21162;-68
2021/06/24 01:37:32;;;;;;;1.80;0.80;;;17.90;96.40;;;;;;5071756;28;20519;-73
2021/06/24 01:39:59;;;;;;;1.77;0.83;;;17.90;96.50;;;;;;5071446;28;20513;-68
2021/06/24 01:42:30;;;;;;;1.73;0.90;;;17.80;96.80;;;;;;5072078;28;20501;-68
2021/06/24 01:44:57;;;;;;;3.80;0.87;;;17.80;96.90;;;;;;5071952;28;20494;-69
2021/06/24 01:47:24;;;;;;;2.00;0.90;;;17.80;97.00;;;;;;5071580;28;20927;-68
2021/06/24 01:49:51;;;;;;;2.73;0.83;;;17.70;97.00;;;;;;5074952;28;20940;-68
2021/06/24 01:52:18;;;;;;;1.70;0.90;;;17.70;97.10;;;;;;5075592;28;20444;-68
2021/06/24 01:54:47;;;;;;;1.60;0.87;;;17.60;97.30;;;;;;5075795;28;20443;-68
2021/06/24 01:57:16;;;;;;;5.67;1.00;;;17.60;97.30;;;;;;5075647;28;20455;-68
2021/06/24 01:59:47;;;;;;;2.93;0.93;;;17.50;97.20;;;;;;5075206;28;20873;-68
2021/06/24 02:02:14;;;;;;;3.80;1.10;;;17.50;97.00;;;;;;5075249;28;20467;-69
2021/06/24 02:04:41;;;;;;;1.83;1.00;;;17.40;97.00;;;;;;5075459;28;20475;-68
2021/06/24 02:07:08;;;;;;;4.27;1.20;;;17.30;97.20;;;;;;5075127;28;20428;-68
2021/06/24 02:09:35;;;;;;;2.60;1.30;;;17.30;97.40;;;;;;5075266;28;20488;-68
2021/06/24 02:12:02;;;;;;;2.37;1.13;;;17.20;97.50;;;;;;5075220;28;20501;-68
2021/06/24 02:14:29;;;;;;;4.63;0.80;;;17.10;97.60;;;;;;5075280;28;20447;-69
2021/06/24 02:17:00;;;;;;;2.33;1.20;;;17.10;97.50;;;;;;5075108;28;20990;-69
2021/06/24 02:19:26;;;;;;;2.07;1.20;;;17.00;97.30;;;;;;5075345;28;20436;-70
2021/06/24 02:21:53;;;;;;;1.60;0.90;;;16.90;97.60;;;;;;5075604;28;20593;-70
2021/06/24 02:24:20;;;;;;;2.87;1.20;;;16.90;97.70;;;;;;5074869;28;20945;-70
2021/06/24 02:26:47;;;;;;;5.53;1.27;;;16.80;97.80;;;;;;5075216;28;20435;-70
2021/06/24 02:29:15;;;;;;;2.47;1.00;;;16.80;98.00;;;;;;5075215;28;20435;-70
2021/06/24 02:31:42;;;;;;;2.13;1.20;;;16.80;98.30;;;;;;5075243;28;20470;-70
2021/06/24 02:34:10;;;;;;;3.03;1.13;;;16.80;98.20;;;;;;5074736;28;20439;-70
2021/06/24 02:36:37;;;;;;;4.00;1.33;;;16.80;98.20;;;;;;5074927;28;20475;-70
2021/06/24 02:39:05;;;;;;;3.20;1.17;;;16.80;98.20;;;;;;5074794;28;20601;-70
2021/06/24 02:41:35;;;;;;;2.30;1.73;;;16.80;98.10;;;;;;5074896;28;20483;-69
2021/06/24 02:44:02;;;;;;;4.10;2.50;;;16.70;98.00;;;;;;5074543;28;20432;-70
2021/06/24 02:46:29;;;;;;;8.37;4.77;;;16.70;97.90;;;;;;5075214;28;20526;-70
2021/06/24 02:48:56;;;;;;;8.43;6.10;;;16.60;98.30;;;;;;5074552;28;20475;-70
2021/06/24 02:51:26;;;;;;;13.10;7.30;;;16.50;97.70;;;;;;5075047;28;20517;-69
2021/06/24 02:53:53;;;;;;;11.87;6.00;;;16.50;97.50;;;;;;5073892;28;20462;-70
2021/06/24 02:56:22;;;;;;;12.20;6.37;;;16.40;97.70;;;;;;5074982;28;20471;-69
2021/06/24 02:58:49;;;;;;;9.10;4.43;;;16.40;97.80;;;;;;5073822;28;20428;-70
2021/06/24 03:01:17;;;;;;;5.97;3.83;;;16.40;98.20;;;;;;5073216;28;20551;-70
2021/06/24 03:03:43;;;;;;;4.40;2.60;;;16.40;98.30;;;;;;5074124;28;20443;-70
2021/06/24 03:06:11;;;;;;;4.73;2.60;;;16.40;98.20;;;;;;5074319;28;20497;-70
2021/06/24 03:08:39;;;;;;;4.47;2.00;;;16.30;98.00;;;;;;5073999;28;20440;-70
2021/06/24 03:11:06;;;;;;;2.20;1.50;;;16.20;98.20;;;;;;5074207;28;20447;-70
2021/06/24 03:13:33;;;;;;;2.87;2.30;;;16.20;98.40;;;;;;5074755;28;20471;-70
2021/06/24 03:16:00;;;;;;;2.83;1.80;;;16.20;98.50;;;;;;5074124;28;20436;-71
2021/06/24 03:18:27;;;;;;;4.93;1.53;;;16.20;98.30;;;;;;5074286;28;20497;-71
2021/06/24 03:20:54;;;;;;;2.40;1.80;;;16.20;98.30;;;;;;5074406;28;20501;-70
2021/06/24 03:23:23;;;;;;;1.93;1.23;;;16.20;98.30;;;;;;5073601;28;20439;-70
2021/06/24 03:25:55;;;;;;;2.43;1.70;;;16.20;98.50;;;;;;5073960;28;20493;-70
2021/06/24 03:28:22;;;;;;;2.23;1.53;;;16.10;98.40;;;;;;5073322;28;20443;-70
2021/06/24 03:30:49;;;;;;;2.53;1.60;;;16.10;98.60;;;;;;5073827;28;20507;-70
2021/06/24 03:33:16;;;;;;;3.07;1.83;;;16.10;98.60;;;;;;5073773;28;20843;-70
2021/06/24 03:35:47;;;;;;;3.30;2.30;;;16.10;98.40;;;;;;5073795;28;20505;-70
2021/06/24 03:38:19;;;;;;;4.57;1.97;;;16.10;98.30;;;;;;5073247;28;20517;-70
2021/06/24 03:40:46;;;;;;;4.00;2.03;;;16.10;98.00;;;;;;5073953;28;20471;-69
2021/06/24 03:43:14;;;;;;;2.00;1.47;;;16.00;97.80;;;;;;5073483;28;20947;-70
2021/06/24 03:45:41;;;;;;;2.30;1.77;;;16.10;98.10;;;;;;5073699;28;20856;-71
2021/06/24 03:48:09;;;;;;;3.50;2.17;;;16.00;98.20;;;;;;5072930;28;20523;-70
2021/06/24 03:50:36;;;;;;;2.83;1.60;;;16.00;98.00;;;;;;5073676;28;20443;-70
2021/06/24 03:53:03;;;;;;;2.20;1.27;;;16.00;98.40;;;;;;5073448;28;20528;-70
2021/06/24 03:55:38;;;;;;;2.33;1.27;;;16.00;98.60;;;;;;5073323;28;20472;-70
2021/06/24 03:58:05;;;;;;;2.20;1.40;;;16.00;98.50;;;;;;5072811;28;20442;-70
2021/06/24 04:00:35;;;;;;;5.57;1.80;;;16.00;98.60;;;;;;5073411;28;20834;-70
2021/06/24 04:03:03;;;;;;;3.50;1.87;;;16.00;98.70;;;;;;5073672;28;20825;-70
2021/06/24 04:05:31;;;;;;;6.03;1.80;;;16.00;98.60;;;;;;5073574;28;20927;-70
2021/06/24 04:07:59;;;;;;;3.50;1.80;;;16.00;97.80;;;;;;5072947;28;20524;-71
2021/06/24 04:10:26;;;;;;;3.60;1.50;;;16.00;98.00;;;;;;5073475;28;20941;-70
2021/06/24 04:12:57;;;;;;;2.93;1.40;;;16.00;97.90;;;;;;5071565;28;20464;-70
2021/06/24 04:15:25;;;;;;;2.63;1.53;;;16.00;98.10;;;;;;5072107;28;20447;-70
2021/06/24 04:17:54;;;;;;;2.50;1.50;;;16.10;98.20;;;;;;5072121;28;20479;-70
2021/06/24 04:20:21;;;;;;;2.40;1.60;;;16.00;98.20;;;;;;5073230;28;20511;-70
2021/06/24 04:22:49;;;;;;;2.30;1.70;;;16.00;98.50;;;;;;5073002;28;20541;-70
2021/06/24 04:25:18;;;;;;;3.13;1.70;;;16.00;98.90;;;;;;5072973;28;20428;-70
2021/06/24 04:27:46;;;;;;;4.23;1.60;;;16.10;99.40;;;;;;5072793;28;20475;-70
2021/06/24 04:30:15;;;;;;;2.83;1.87;;;16.20;99.40;;;;;;5072792;28;20518;-70
2021/06/24 04:32:42;;;;;;;5.67;1.60;;;16.20;99.30;;;;;;5072762;28;20460;-70
2021/06/24 04:35:12;;;;;;;2.63;1.70;;;16.10;99.30;;;;;;5072948;28;20855;-70
2021/06/24 04:37:39;;;;;;;3.80;1.70;;;16.20;99.50;;;;;;5072652;28;20476;-70
2021/06/24 04:40:09;;;;;;;2.83;1.60;;;16.10;99.30;;;;;;5072524;28;20891;-69
2021/06/24 04:42:36;;;;;;;2.17;1.30;;;16.20;99.60;;;;;;5072704;28;20503;-70
2021/06/24 04:45:04;;;;;;;3.57;1.53;;;16.30;99.60;;;;;;5072669;28;20523;-70
2021/06/24 04:47:31;;;;;;;2.80;1.90;;;16.30;99.70;;;;;;5072524;28;20772;-69
2021/06/24 04:49:58;;;;;;;2.67;1.70;;;16.40;99.90;;;;;;5073354;28;20772;-70
2021/06/24 04:52:27;;;;;;;2.50;1.40;;;16.50;99.90;;;;;;5072375;28;20428;-69
2021/06/24 04:54:54;;;;;;;2.20;1.70;;;16.60;99.90;;;;;;5072712;28;20775;-69
2021/06/24 04:57:21;;;;;;;2.40;1.40;;;16.70;99.90;;;;;;5072186;28;20490;-69
2021/06/24 04:59:48;;;;;;;2.93;1.63;;;16.70;99.90;;;;;;5072685;28;21299;-69
2021/06/24 05:02:16;;;;;;;2.50;1.20;;;16.80;99.90;;;;;;5072370;28;20483;-70
2021/06/24 05:04:43;;;;;;;2.63;1.60;;;16.80;99.90;;;;;;5072340;28;20497;-69
2021/06/24 05:07:10;;;;;;;2.50;1.50;;;16.80;99.90;;;;;;5082725;28;20435;-70
2021/06/24 05:09:41;;;;;;;3.13;1.60;;;16.80;99.40;;;;;;5076174;28;20773;-70
2021/06/24 05:12:10;;;;;;;4.50;1.63;;;16.80;99.70;;;;;;5072786;28;20435;-69
2021/06/24 05:14:38;;;;;;;2.30;1.60;;;16.90;99.90;;;;;;5072645;28;20439;-69
2021/06/24 05:17:13;;;;;;;3.90;2.60;;;16.90;99.90;;;;;;5090335;28;20522;-70
2021/06/24 05:19:40;;;;;;;3.07;2.20;;;16.90;99.90;;;;;;5092530;28;20477;-70
2021/06/24 05:22:07;;;;;;;3.67;2.60;;;17.00;99.90;;;;;;5084133;28;20487;-69
2021/06/24 05:24:34;;;;;;;6.80;2.07;;;17.10;99.90;;;;;;5071853;28;20436;-70
2021/06/24 05:27:03;;;;;;;7.00;1.70;;;17.20;99.90;;;;;;5089448;28;20497;-70
2021/06/24 05:29:30;;;;;;;2.90;1.70;;;17.20;99.90;;;;;;5092263;28;20479;-70
2021/06/24 05:31:57;;;;;;;2.60;1.53;;;17.20;99.90;;;;;;5076203;28;20440;-70
2021/06/24 05:34:24;;;;;;;2.90;1.70;;;17.30;99.90;;;;;;5072200;28;20956;-70
2021/06/24 05:36:51;;;;;;;3.77;1.80;;;17.40;99.90;;;;;;5086873;28;20930;-70
2021/06/24 05:39:18;;;;;;;6.80;1.57;;;17.50;99.90;;;;;;5082834;28;20432;-71
2021/06/24 05:41:45;;;;;;;3.20;1.33;;;17.50;99.90;;;;;;5072869;28;20545;-70
2021/06/24 05:44:13;;;;;;;3.13;1.60;;;17.60;99.90;;;;;;5080117;28;20467;-70
2021/06/24 05:46:40;;;;;;;2.40;1.37;;;17.70;99.90;;;;;;5092493;28;20799;-70
2021/06/24 05:49:07;;;;;;;3.20;1.90;;;17.70;99.90;;;;;;5085262;28;20865;-70
2021/06/24 05:51:34;;;;;;;5.40;2.37;;;17.80;99.90;;;;;;5073499;28;20440;-71
2021/06/24 05:54:01;;;;;;;5.53;2.07;;;17.90;99.90;;;;;;5071935;28;20939;-70
2021/06/24 05:56:29;;;;;;;2.60;1.80;;;17.90;99.90;;;;;;5075720;28;20518;-71
2021/06/24 05:58:57;;;;;;;6.03;1.80;;;18.00;99.90;;;;;;5092206;28;20446;-70
2021/06/24 06:01:25;;;;;;;2.60;1.50;;;18.10;99.90;;;;;;5085256;28;20537;-70
2021/06/24 06:03:52;;;;;;;2.20;1.40;;;18.20;99.90;;;;;;5071911;28;20467;-69
2021/06/24 06:06:19;;;;;;;3.33;1.80;;;18.20;99.90;;;;;;5077376;28;20435;-70
2021/06/24 06:08:46;;;;;;;4.00;1.40;;;18.30;99.90;;;;;;5092368;28;20446;-70
2021/06/24 06:11:13;;;;;;;2.67;1.53;;;18.30;99.90;;;;;;5078801;28;20464;-70
2021/06/24 06:13:40;;;;;;;2.90;1.33;;;18.40;99.90;;;;;;5080166;28;20860;-70
2021/06/24 06:16:07;;;;;;;3.13;1.63;;;18.50;99.80;;;;;;5088693;28;20439;-69
2021/06/24 06:18:36;;;;;;;2.33;1.40;;;18.50;99.90;;;;;;5074327;28;20934;-71
2021/06/24 06:21:03;;;;;;;2.40;1.60;;;18.60;99.90;;;;;;5072100;28;20443;-70
2021/06/24 06:23:30;;;;;;;2.67;2.10;;;18.70;99.90;;;;;;5072071;28;20522;-70
2021/06/24 06:25:59;;;;;;;4.13;2.40;;;18.80;99.40;;;;;;5071785;28;20444;-70
2021/06/24 06:28:27;;;;;;;3.23;2.20;;;18.80;99.50;;;;;;5081465;28;20436;-70
2021/06/24 06:30:57;;;;;;;7.40;2.07;;;18.90;99.30;;;;;;5071460;28;20491;-69
2021/06/24 06:33:24;;;;;;;2.83;1.80;;;18.90;99.20;;;;;;5071857;28;20452;-70
2021/06/24 06:35:53;;;;;;;4.40;2.50;;;19.10;99.40;;;;;;5074242;28;20436;-70
2021/06/24 06:38:21;;;;;;;3.50;2.33;;;19.20;99.30;;;;;;5075434;28;20439;-70
2021/06/24 06:40:52;;;;;;;3.00;2.30;;;19.30;99.40;;;;;;5074932;28;20440;-70
2021/06/24 06:43:19;;;;;;;4.03;2.07;;;19.30;99.10;;;;;;5075461;28;20483;-70
2021/06/24 06:45:47;;;;;;;4.17;1.97;;;19.40;98.60;;;;;;5074641;28;20440;-69
2021/06/24 06:48:15;;;;;;;3.10;2.27;;;19.50;98.50;;;;;;5075409;28;20440;-69
2021/06/24 06:50:43;;;;;;;3.37;2.20;;;19.50;98.80;;;;;;5085491;28;20439;-69
2021/06/24 06:53:11;;;;;;;3.00;1.90;;;19.70;98.80;;;;;;5080038;28;20432;-69
2021/06/24 06:55:38;;;;;;;5.53;1.50;;;19.70;98.60;;;;;;5075462;28;20540;-69
2021/06/24 06:58:06;;;;;;;3.37;2.10;;;19.80;97.50;;;;;;5074927;28;20440;-69
2021/06/24 07:00:34;;;;;;;3.03;2.10;;;19.80;96.70;;;;;;5090833;28;20522;-70
2021/06/24 07:03:05;;;;;;;2.47;1.70;;;19.90;97.00;;;;;;5095098;28;20488;-69
2021/06/24 07:05:37;;;;;;;2.30;1.50;;;19.90;96.20;;;;;;5091819;28;20428;-71
2021/06/24 07:08:04;;;;;;;5.97;2.30;;;20.00;95.90;;;;;;5078578;28;20520;-70
2021/06/24 07:10:36;;;;;;;2.63;1.57;;;20.00;96.40;;;;;;5074867;28;20540;-72
2021/06/24 07:13:03;;;;;;;2.30;1.57;;;20.10;96.40;;;;;;5073872;28;20519;-70
2021/06/24 07:15:31;;;;;;;2.33;1.30;;;20.20;95.80;;;;;;5076767;28;20867;-70
2021/06/24 07:17:58;;;;;;;2.67;1.40;;;20.20;95.40;;;;;;5079899;28;20433;-70
2021/06/24 07:20:25;;;;;;;4.80;1.33;;;20.30;96.20;;;;;;5077435;28;20435;-69
2021/06/24 07:22:52;;;;;;;2.97;1.33;;;20.40;96.10;;;;;;5094959;28;20479;-71
2021/06/24 07:25:20;;;;;;;2.10;1.20;;;20.60;95.90;;;;;;5092495;28;20530;-70
2021/06/24 07:27:48;;;;;;;5.53;1.30;;;20.70;95.70;;;;;;5080841;28;20459;-70
2021/06/24 07:30:16;;;;;;;3.43;1.10;;;20.80;95.40;;;;;;5093246;28;20545;-72
2021/06/24 07:32:44;;;;;;;2.23;1.23;;;20.90;94.10;;;;;;5074612;28;20444;-70
2021/06/24 07:35:12;;;;;;;2.23;1.20;;;21.00;94.00;;;;;;5074339;28;20493;-70
2021/06/24 07:37:44;;;;;;;2.27;1.17;;;21.10;93.20;;;;;;5073598;28;20486;-70
2021/06/24 07:40:13;;;;;;;2.67;1.23;;;21.20;93.00;;;;;;5074263;28;20448;-70
2021/06/24 07:42:39;;;;;;;2.77;1.00;;;21.20;92.60;;;;;;5073917;28;20877;-70
2021/06/24 07:45:09;;;;;;;5.30;1.10;;;21.30;92.10;;;;;;5073585;28;20471;-70
2021/06/24 07:47:36;;;;;;;2.00;1.00;;;21.30;92.00;;;;;;5072016;28;20432;-69
2021/06/24 07:50:04;;;;;;;3.60;1.10;;;21.40;91.90;;;;;;5074540;28;20501;-70
2021/06/24 07:52:31;;;;;;;2.00;0.80;;;21.40;92.50;;;;;;5078091;28;20990;-70
2021/06/24 07:54:58;;;;;;;2.73;1.20;;;21.50;91.60;;;;;;5090879;28;20431;-70
2021/06/24 07:57:28;;;;;;;2.20;1.10;;;21.60;91.70;;;;;;5093034;28;20439;-71
2021/06/24 07:59:55;;;;;;;2.13;1.20;;;21.70;90.30;;;;;;5093462;28;20431;-72
2021/06/24 08:02:23;;;;;;;1.80;0.80;;;21.80;91.20;;;;;;5075047;28;20517;-70
2021/06/24 08:04:50;;;;;;;3.30;1.00;;;21.90;90.50;;;;;;5077028;28;20503;-69
2021/06/24 08:07:22;;;;;;;1.97;0.90;;;21.90;88.60;;;;;;5073694;28;20464;-70
2021/06/24 08:09:51;;;;;;;2.40;1.27;;;22.00;89.60;;;;;;5054086;28;20476;-70
2021/06/24 08:12:19;;;;;;;2.00;1.40;;;22.20;89.70;;;;;;5053650;28;20449;-69
2021/06/24 08:14:49;;;;;;;1.80;0.83;;;22.40;89.50;;;;;;5054094;28;20452;-69
2021/06/24 08:17:17;;;;;;;1.80;1.00;;;22.50;88.70;;;;;;5054113;28;20529;-68
2021/06/24 08:19:45;;;;;;;2.80;1.03;;;22.60;88.60;;;;;;5065032;28;20431;-68
2021/06/24 08:22:16;;;;;;;3.40;1.37;;;22.80;88.50;;;;;;5094119;28;20498;-68
2021/06/24 08:24:43;;;;;;;2.90;1.30;;;22.90;88.90;;;;;;5093424;28;21025;-68
2021/06/24 08:27:10;;;;;;;2.53;1.03;;;23.10;86.60;;;;;;5094021;28;20439;-69
2021/06/24 08:29:37;;;;;;;2.20;0.93;;;23.20;87.30;;;;;;5093358;28;20446;-69
2021/06/24 08:32:08;;;;;;;2.03;1.00;;;23.30;85.30;;;;;;5093246;28;20526;-69
2021/06/24 08:34:34;;;;;;;4.53;1.20;;;23.40;83.30;;;;;;5092760;28;20471;-69
2021/06/24 08:37:03;;;;;;;1.87;1.00;;;23.40;83.10;;;;;;5074768;28;20435;-69
2021/06/24 08:39:31;;;;;;;2.17;1.27;;;23.40;81.90;;;;;;5072851;28;20483;-69
2021/06/24 08:41:58;;;;;;;2.23;1.23;;;23.40;82.20;;;;;;5072546;28;20505;-69
2021/06/24 08:44:25;;;;;;;2.00;1.07;;;23.50;81.60;;;;;;5072618;28;20436;-69
2021/06/24 08:46:57;;;;;;;2.20;1.20;;;23.50;81.50;;;;;;5072636;28;20957;-70
2021/06/24 08:49:27;;;;;;;1.87;1.10;;;23.60;81.30;;;;;;5072943;28;20835;-68
2021/06/24 08:51:57;;;;;;;2.20;1.30;;;23.60;82.60;;;;;;5073115;28;20444;-68
2021/06/24 08:54:27;;;;;;;2.60;1.10;;;23.60;81.90;;;;;;5071319;28;20448;-69
2021/06/24 08:56:54;;;;;;;2.60;1.60;;;23.80;83.00;;;;;;5071115;28;21013;-68
2021/06/24 08:59:23;;;;;;;2.17;1.07;;;23.90;83.10;;;;;;5071989;28;20444;-69
2021/06/24 09:01:56;;;;;;;2.83;1.07;;;23.90;82.00;;;;;;5072212;28;20429;-68
2021/06/24 09:04:24;;;;;;;1.90;1.13;;;23.90;80.10;;;;;;5083846;28;20447;-69
2021/06/24 09:06:52;;;;;;;2.03;1.10;;;24.00;81.40;;;;;;5085798;28;20921;-69
2021/06/24 09:09:29;;;;;;;1.87;1.33;;;24.10;80.90;;;;;;5074032;28;20844;-69
2021/06/24 09:12:04;;;;;;;2.90;1.00;;;24.20;79.60;;;;;;5080314;28;20428;-68
2021/06/24 09:14:42;;;;;;;2.30;1.00;;;24.20;78.90;;;;;;5081439;28;20453;-69
2021/06/24 09:17:10;;;;;;;2.17;1.30;;;24.20;78.00;;;;;;5089036;28;20432;-71
2021/06/24 09:19:40;;;;;;;1.90;1.00;;;24.30;78.60;;;;;;5092212;28;20432;-69
2021/06/24 09:22:08;;;;;;;2.17;1.20;;;24.50;79.70;;;;;;5083232;28;20433;-74
2021/06/24 09:24:38;;;;;;;2.67;1.03;;;24.60;76.30;;;;;;5071208;28;20837;-71
2021/06/24 09:27:22;;;;;;;2.63;1.10;;;24.60;75.60;;;;;;5072382;28;20428;-69
2021/06/24 09:29:49;;;;;;;2.10;1.23;;;24.70;75.30;;;;;;5062735;28;20460;-69
2021/06/24 09:32:30;;;;;;;2.00;1.00;;;24.70;73.90;;;;;;5071849;28;20542;-69
2021/06/24 09:34:58;;;;;;;2.27;1.23;;;24.70;76.20;;;;;;5071857;28;20428;-69
2021/06/24 09:37:26;;;;;;;1.90;1.17;;;24.90;77.00;;;;;;5072722;28;20435;-69
2021/06/24 09:39:55;;;;;;;2.67;0.90;;;25.10;78.10;;;;;;5072010;28;20440;-69
2021/06/24 09:42:23;;;;;;;2.43;1.23;;;25.40;78.00;;;;;;5070959;28;20877;-69
2021/06/24 09:44:50;;;;;;;1.80;0.90;;;25.60;73.70;;;;;;5072618;28;20798;-69
2021/06/24 09:47:25;;;;;;;2.20;0.90;;;25.70;74.00;;;;;;5071976;28;20498;-70
2021/06/24 09:50:00;;;;;;;1.90;1.00;;;25.90;74.40;;;;;;5091666;28;20437;-71
2021/06/24 09:52:29;;;;;;;2.73;1.23;;;26.00;72.80;;;;;;5090330;28;20436;-69
2021/06/24 09:55:06;;;;;;;3.10;1.57;;;26.00;72.10;;;;;;5083606;28;20492;-69
2021/06/24 09:57:39;;;;;;;1.90;1.03;;;26.00;70.50;;;;;;5071513;28;20450;-69
2021/06/24 10:00:23;;;;;;;7.43;1.20;;;26.10;69.60;;;;;;5080751;28;20526;-70
2021/06/24 10:03:07;;;;;;;1.80;1.10;;;26.10;69.20;;;;;;5072459;28;20498;-71
2021/06/24 10:05:35;;;;;;;2.07;1.20;;;26.20;67.30;;;;;;5072414;28;20523;-69
2021/06/24 10:08:02;;;;;;;2.17;1.20;;;26.20;68.60;;;;;;5076758;28;20432;-69
2021/06/24 10:10:31;;;;;;;1.60;0.80;;;26.50;70.20;;;;;;5094997;28;20802;-69
2021/06/24 10:12:58;;;;;;;2.30;1.10;;;26.60;64.50;;;;;;5092573;28;20504;-70
2021/06/24 10:15:25;;;;;;;2.10;1.17;;;26.80;65.90;;;;;;5075664;28;20523;-69
2021/06/24 10:17:54;;;;;;;3.20;1.60;;;27.00;65.50;;;;;;5076371;28;20440;-69
2021/06/24 10:20:22;;;;;;;1.80;1.00;;;27.30;64.80;;;;;;5075705;28;20518;-69
2021/06/24 10:22:56;;;;;;;2.90;1.10;;;27.60;64.10;;;;;;5075324;28;20479;-71
2021/06/24 10:25:24;;;;;;;1.97;0.90;;;27.90;62.70;;;;;;5075473;28;20980;-69
2021/06/24 10:27:54;;;;;;;2.67;0.93;;;28.10;62.60;;;;;;5075106;28;20505;-69
2021/06/24 10:30:23;;;;;;;2.00;1.13;;;28.10;60.40;;;;;;5075047;28;20544;-69
2021/06/24 10:32:59;;;;;;;1.77;0.97;;;28.30;59.60;;;;;;5074788;28;20964;-69
2021/06/24 10:35:28;;;;;;;1.77;0.90;;;28.40;58.20;;;;;;5075524;28;20483;-69
2021/06/24 10:37:55;;;;;;;1.90;1.13;;;28.50;57.30;;;;;;5074878;28;20932;-69
2021/06/24 10:40:25;;;;;;;4.13;1.37;;;28.40;54.70;;;;;;5075045;28;20487;-69
2021/06/24 10:42:55;;;;;;;1.70;0.80;;;28.10;53.80;;;;;;5074694;28;20532;-69
2021/06/24 10:45:23;;;;;;;3.07;1.03;;;27.80;54.10;;;;;;5077990;28;20523;-68
2021/06/24 10:47:51;;;;;;;2.47;1.23;;;27.50;54.40;;;;;;5074617;28;20478;-68
2021/06/24 10:50:45;;;;;;;2.90;1.17;;;27.20;56.10;;;;;;5074225;28;20443;-68
2021/06/24 10:53:55;;;;;;;2.20;1.10;;;26.80;57.10;;;;;;5074879;28;20444;-68
2021/06/24 10:56:47;;;;;;;2.07;1.20;;;26.40;59.00;;;;;;5058022;28;20915;-69
2021/06/24 10:59:33;;;;;;;3.13;1.40;;;26.00;61.00;;;;;;5072564;28;20973;-68
2021/06/24 11:02:11;;;;;;;1.80;0.97;;;25.60;62.90;;;;;;5074161;28;20803;-70
2021/06/24 11:04:48;;;;;;;3.23;1.23;;;25.30;63.00;;;;;;5075131;28;20885;-69
2021/06/24 11:07:25;;;;;;;7.30;1.23;;;25.10;63.80;;;;;;5073309;28;20446;-68
2021/06/24 11:10:15;;;;;;;3.07;1.50;;;24.90;65.00;;;;;;5067060;28;20787;-68
2021/06/24 11:12:56;;;;;;;4.33;1.53;;;24.70;66.60;;;;;;5074752;28;20465;-68
2021/06/24 11:15:53;;;;;;;4.87;1.40;;;24.60;69.50;;;;;;5073826;28;20437;-68
2021/06/24 11:18:48;;;;;;;7.13;1.30;;;24.50;70.90;;;;;;5071235;28;20448;-70
2021/06/24 11:21:20;;;;;;;2.47;1.33;;;24.40;73.90;;;;;;5079235;28;20446;-68
2021/06/24 11:23:49;;;;;;;4.17;1.47;;;24.30;75.00;;;;;;5080660;28;20597;-68
2021/06/24 11:26:30;;;;;;;3.73;1.47;;;24.40;75.10;;;;;;5074004;28;20440;-68
2021/06/24 11:29:02;;;;;;;2.30;1.30;;;24.60;77.20;;;;;;5074914;28;20434;-68
2021/06/24 11:31:40;;;;;;;3.30;1.50;;;24.80;77.10;;;;;;5073971;28;20552;-68
2021/06/24 11:34:14;;;;;;;3.60;1.40;;;25.20;81.00;;;;;;5074047;28;20447;-69
2021/06/24 11:36:48;;;;;;;2.57;1.20;;;25.70;81.50;;;;;;5073885;28;20454;-69
2021/06/24 11:39:22;;;;;;;1.90;1.10;;;26.00;76.00;;;;;;5074500;28;20503;-68
2021/06/24 11:41:53;;;;;;;3.07;1.30;;;26.00;73.60;;;;;;5074078;28;20446;-68
2021/06/24 11:44:27;;;;;;;3.07;1.30;;;25.90;73.70;;;;;;5073980;28;20570;-68
2021/06/24 11:46:58;;;;;;;2.00;1.37;;;25.90;76.60;;;;;;5073041;28;20470;-68
2021/06/24 12:00:24;;;;;;;2.50;1.50;;;25.90;78.10;;;;;;5074544;28;20427;-69
2021/06/24 12:03:33;;;;;;;2.60;1.47;;;26.20;69.00;;;;;;5056744;28;20482;-68
2021/06/24 12:06:02;;;;;;;3.50;1.37;;;26.40;72.00;;;;;;5073680;28;20441;-68
2021/06/24 12:08:29;;;;;;;2.70;1.30;;;26.60;72.20;;;;;;5073901;28;20439;-77
2021/06/24 12:11:07;;;;;;;2.10;1.30;;;26.80;68.60;;;;;;5073042;28;20443;-68
2021/06/24 12:13:37;;;;;;;1.90;1.20;;;27.00;65.90;;;;;;5073663;28;20432;-69
2021/06/24 12:16:04;;;;;;;1.90;1.23;;;27.10;66.40;;;;;;5073620;28;20459;-70
2021/06/24 12:18:35;;;;;;;3.77;1.33;;;27.20;62.60;;;;;;5073380;28;20490;-68
2021/06/24 12:21:04;;;;;;;2.57;1.10;;;27.30;63.20;;;;;;5073183;28;20444;-68
2021/06/24 12:23:31;;;;;;;2.13;1.63;;;27.50;61.00;;;;;;5073612;28;20480;-70
2021/06/24 12:26:00;;;;;;;3.30;1.40;;;27.60;60.70;;;;;;5073286;28;20467;-68
2021/06/24 12:28:27;;;;;;;1.77;1.00;;;27.70;60.20;;;;;;5073023;28;20441;-68
2021/06/24 12:30:55;;;;;;;2.37;1.40;;;27.80;58.20;;;;;;5073295;28;20814;-68
2021/06/24 12:33:25;;;;;;;2.87;1.17;;;27.90;57.10;;;;;;5072298;28;20475;-68
2021/06/24 12:35:59;;;;;;;5.17;1.37;;;27.80;56.30;;;;;;5073078;28;20468;-68
2021/06/24 12:38:28;;;;;;;1.87;0.97;;;27.60;57.10;;;;;;5072725;28;20949;-68
2021/06/24 12:40:57;;;;;;;1.80;1.13;;;27.60;56.40;;;;;;5073099;28;20442;-69
2021/06/24 12:43:27;;;;;;;2.00;1.17;;;27.60;57.30;;;;;;5072586;28;20972;-70
2021/06/24 12:45:55;;;;;;;2.43;1.00;;;27.70;56.60;;;;;;5072554;28;20463;-68
2021/06/24 12:48:27;;;;;;;2.23;1.10;;;27.80;56.30;;;;;;5072852;28;20532;-68
2021/06/24 12:50:56;;;;;;;2.00;1.20;;;27.90;56.80;;;;;;5072800;28;20441;-69
2021/06/24 12:53:32;;;;;;;5.40;1.40;;;27.90;55.60;;;;;;5072540;28;20451;-68
2021/06/24 12:56:00;;;;;;;3.00;1.20;;;27.60;55.80;;;;;;5072983;28;20443;-68
2021/06/24 12:58:37;;;;;;;1.87;0.90;;;27.50;55.70;;;;;;5072540;28;20451;-68
2021/06/24 13:01:13;;;;;;;2.27;1.23;;;27.30;56.50;;;;;;5073302;28;20427;-71
2021/06/24 13:03:42;;;;;;;2.70;1.53;;;27.10;56.50;;;;;;5072458;28;20502;-68
2021/06/24 13:06:20;;;;;;;2.17;1.10;;;27.00;57.30;;;;;;5071184;28;20830;-68
2021/06/24 13:08:56;;;;;;;3.20;1.83;;;26.80;56.60;;;;;;5072795;28;20450;-73